AirNav   Pilot Hours Calculator
 
 2015 users online  

10WI Buds Landing Airport
Pound, Wisconsin, USA

GOING TO POUND?


FAA INFORMATION EFFECTIVE 02 JANUARY 2020

Location

FAA Identifier: 10WI
Lat/Long: 45-06-56.9330N 088-11-22.3680W
45-06.948883N 088-11.372800W
45.1158147,-88.1895467
(estimated)
Elevation: 850 ft. / 259 m (estimated)
Variation: 02W (1985)
From city: 7 miles WSW of POUND, WI
Time zone: UTC -6 (UTC -5 during Daylight Saving Time)
Zip code: 54161

Airport Operations

Airport use: Private use. Permission required prior to landing
Activation date: 11/1988
Control tower: no
ARTCC: MINNEAPOLIS CENTER
FSS: GREEN BAY FLIGHT SERVICE STATION
Attendance: UNATNDD
Wind indicator: yes
Segmented circle: no

Airport Communications

WX AWOS-3 at OCQ (19 nm SE): 120.925 (920-835-1599)

Nearby radio navigation aids

VOR radial/distance  VOR name  Freq  Var
MNMr260/23.3MENOMINEE VOR/DME109.6000E
GRBr359/33.6GREEN BAY VORTAC115.5001E

Airport Services

Runway Information

Runway 18/36

Dimensions: 2100 x 200 ft. / 640 x 61 m
Surface: turf
Operational restrictions: RY 18/36 TEMPORARILY CLSD.
RUNWAY 18  RUNWAY 36
Traffic pattern: rightleft
Obstructions: 50 ft. trees, 500 ft. from runwaynone

Airport Ownership and Management from official FAA records

Ownership: Privately-owned
Owner: ROBERT J. WARDECKE
8910 HWY 64
POUND, WI 54161
Phone 414-897-3823
Manager: ROBERT J. WARDECKE
8910 HWY 64
POUND, WI 54161
Phone 414-897-3823

Airport Operational Statistics

Aircraft based on the field: 1
Single engine airplanes: 1
    

Additional Remarks

TREES NE OF ARPT MAY CAUSE SOME WIND SHEAR WHEN LANDING SOUTH.
RY 18/36 & RAMP NOT ALWAYS PLOWED IN WINTER.
ARPT NOT USEABLE DURG VERY WET PERIODS.
FOR CD CTC MINNEAPOLIS ARTCC AT 651-463-5588.

Instrument Procedures

There are no published instrument procedures at 10WI.

Some nearby airports with instrument procedures:

KOCQ - Oconto-J Douglas Bake Municipal Airport (19 nm SE)
KMNM - Menominee Regional Airport (23 nm E)
KEZS - Shawano Municipal Airport (25 nm SW)
KSUE - Door County Cherryland Airport (36 nm SE)
KCLI - Clintonville Municipal Airport (38 nm SW)
 
Loc | Ops | Rwys | IFR | FBO | Links
Com | Nav | Svcs | Stats | Notes
Area around 10WI (Buds Landing Airport)
 
Road maps at: MapQuest Bing Google
 
Aerial photo
No photo
 
Sectional chart

 
Airport distance calculator
Flying to Buds Landing Airport? Find the distance to fly.

From to 10WI

Sunrise and sunset
Times for 27-Jan-2020
 Local
(UTC-6)
 Zulu
(UTC)
Morning civil twilight06:4812:48
Sunrise07:1913:19
Sunset16:5222:52
Evening civil twilight17:2423:24

Current date and time
Zulu (UTC)  27-Jan-2020 22:06:01
Local (UTC-6)  27-Jan-2020 16:06:01
 
METAR
KOCQ 
19nm SE 
272155Z AUTO 00000KT 10SM OVC025 00/M04 A2999 RMK AO1 T00031042
KMNM 
24nm E 
272156Z AUTO 33004KT 10SM OVC025 01/M04 A2999 RMK AO2 SLP161 T00111039 FZRANO $
KEZS 
25nm SW 
715-526-2967
272155Z AUTO 30006KT 10SM OVC022 01/M03 A2998 RMK AO2 T00101033
KSUE 
36nm SE 
272156Z AUTO 30004KT 10SM OVC025 01/M03 A2998 RMK AO2 SLP161 T00061028 FZRANO $
TAF
KGRB 
38nm S 
271733Z 2718/2818 34007KT P6SM OVC020 FM280300 32003KT 6SM -SHSN BR SCT010 OVC015 FM281400 35003KT P6SM BKN020
NOTAMs
Click for the latest NOTAMs
NOTAMs are issued by the DoD/FAA and will open in a separate window not controlled by AirNav.

 

 
 

Would you like to see your business listed on this page?

 If your business provides an interesting product or service to pilots, flight crews, aircraft, or users of the Buds Landing Airport, you should consider listing it here.  To start the listing process, click on the button below
 
Add a business
 

Other Pages about Buds Landing Airport

Update a link
 
Copyright © AirNav, LLC. All rights reserved. Privacy Policy  Contact